Terminal Aerodrome Forecast
Issued by NWS

Current Version | Previous Version | Graphics & Text | Print | Product List | Glossary On
Versions: 1 2 3 4 5 6 7 8 9 10 11 12 13 14 15 16 17 18 19 20 21 22 23 24 25 26 27
000
FTUS41 KILN 042100 AAB
TAFLCK
TAF AMD
KLCK 042101Z 0421/0518 31004KT P6SM BKN017 BKN022 OVC050
     FM050200 34010KT 4SM -SN BR OVC012
     FM050600 33010KT P6SM SCT018 OVC120
     FM051300 33010KT P6SM BKN025=

USA.gov is the U.S. government's official web portal to all federal, state and local government web resources and services.